Time;durP1;ratioP1;P1;durP2;ratioP2;P2;SDS_P1;SDS_P2;PMS_P1;PMS_P2;Temp;Humidity;BMP_temperature;BMP_pressure;BME280_temperature;BME280_humidity;BME280_pressure;Samples;Min_cycle;Max_cycle;Signal;HPM_P1;HPM_P2
2023/04/10 00:02:22;;;;;;;12.30;6.57;;;2.40;99.90;;;;;;5075480;28;20044;-60
2023/04/10 00:04:49;;;;;;;15.70;7.55;;;2.40;99.90;;;;;;5071536;28;20409;-61
2023/04/10 00:07:16;;;;;;;15.25;5.80;;;2.40;99.90;;;;;;5070569;28;20119;-61
2023/04/10 00:09:43;;;;;;;11.75;6.63;;;2.40;99.90;;;;;;5071117;28;20103;-60
2023/04/10 00:12:10;;;;;;;11.15;4.40;;;2.30;99.90;;;;;;5070592;28;20052;-60
2023/04/10 00:14:37;;;;;;;9.20;4.90;;;2.30;99.90;;;;;;5052533;28;20068;-60
2023/04/10 00:17:03;;;;;;;11.23;6.50;;;2.30;99.90;;;;;;5072286;28;20036;-60
2023/04/10 00:19:30;;;;;;;13.90;6.43;;;2.30;99.90;;;;;;5075594;28;20485;-60
2023/04/10 00:21:57;;;;;;;11.52;6.05;;;2.20;99.90;;;;;;5070028;28;20032;-60
2023/04/10 00:24:23;;;;;;;12.73;6.47;;;2.20;99.90;;;;;;5070237;28;20068;-60
2023/04/10 00:26:50;;;;;;;15.25;7.18;;;2.10;99.90;;;;;;5070754;28;20161;-60
2023/04/10 00:29:18;;;;;;;14.45;6.97;;;2.10;99.90;;;;;;5061124;28;20036;-60
2023/04/10 00:31:45;;;;;;;12.85;6.70;;;2.10;99.90;;;;;;5070101;28;20060;-60
2023/04/10 00:34:12;;;;;;;10.95;4.75;;;2.10;99.90;;;;;;5071214;28;20037;-60
2023/04/10 00:36:39;;;;;;;14.68;7.18;;;2.10;99.90;;;;;;5051970;28;20037;-60
2023/04/10 00:39:08;;;;;;;15.38;8.15;;;2.10;99.90;;;;;;5070501;28;20040;-60
2023/04/10 00:41:34;;;;;;;16.33;8.07;;;2.00;99.90;;;;;;5070336;28;20037;-60
2023/04/10 00:44:01;;;;;;;14.70;7.63;;;2.00;99.90;;;;;;5056857;28;20045;-60
2023/04/10 00:46:29;;;;;;;13.07;6.90;;;2.00;99.90;;;;;;5082040;28;20070;-60
2023/04/10 00:48:57;;;;;;;15.98;7.10;;;2.00;99.90;;;;;;5087783;28;20807;-60
2023/04/10 00:51:25;;;;;;;14.80;6.63;;;2.00;99.90;;;;;;5069829;28;20036;-60
2023/04/10 00:53:53;;;;;;;13.63;6.57;;;2.00;99.90;;;;;;5052797;28;20037;-60
2023/04/10 00:56:22;;;;;;;14.90;6.63;;;2.00;99.90;;;;;;5069626;28;20028;-60
2023/04/10 00:58:49;;;;;;;14.13;6.13;;;2.00;99.90;;;;;;5068990;28;20070;-60
2023/04/10 01:01:17;;;;;;;;;;;1.90;99.90;;;;;;5102172;28;20035;-60
2023/04/10 01:03:44;;;;;;;13.07;6.18;;;1.70;99.90;;;;;;5082609;28;20041;-60
2023/04/10 01:06:30;;;;;;;11.68;6.47;;;1.60;99.90;;;;;;5052476;28;20049;-60
2023/04/10 01:09:26;;;;;;;19.08;6.95;;;1.50;99.90;;;;;;5072018;28;20468;-60
2023/04/10 01:12:07;;;;;;;12.93;6.93;;;1.40;99.90;;;;;;5056612;28;20185;-60
2023/04/10 01:14:57;;;;;;;12.18;6.93;;;1.40;99.90;;;;;;5082200;28;20033;-60
2023/04/10 01:17:30;;;;;;;13.68;6.75;;;1.40;99.90;;;;;;5075223;28;20094;-60
2023/04/10 01:20:13;;;;;;;12.50;6.35;;;1.30;99.90;;;;;;5085613;28;20044;-60
2023/04/10 01:23:25;;;;;;;14.82;7.03;;;1.40;99.90;;;;;;5076616;28;20040;-60
2023/04/10 01:26:00;;;;;;;16.25;7.82;;;1.40;99.90;;;;;;5074279;28;20102;-60
2023/04/10 01:28:41;;;;;;;17.13;7.63;;;1.40;99.90;;;;;;5061107;28;20079;-60
2023/04/10 01:31:15;;;;;;;14.73;6.53;;;1.40;99.90;;;;;;5056628;28;20094;-60
2023/04/10 01:33:58;;;;;;;16.10;7.60;;;1.40;99.90;;;;;;5055301;28;20471;-60
2023/04/10 01:36:30;;;;;;;12.70;6.88;;;1.40;99.90;;;;;;5077974;28;20072;-60
2023/04/10 01:38:57;;;;;;;14.20;7.25;;;1.40;99.90;;;;;;5058121;28;20044;-60
2023/04/10 01:41:26;;;;;;;16.00;7.72;;;1.30;99.90;;;;;;5080129;28;20071;-60
2023/04/10 01:43:55;;;;;;;15.60;7.53;;;1.30;99.90;;;;;;5053711;28;20419;-60
2023/04/10 01:46:23;;;;;;;14.70;7.22;;;1.40;99.90;;;;;;5054517;28;20686;-60
2023/04/10 01:48:52;;;;;;;11.85;6.22;;;1.40;99.90;;;;;;5079760;28;20500;-60
2023/04/10 01:51:20;;;;;;;15.23;7.03;;;1.50;99.90;;;;;;5066692;28;20101;-60
2023/04/10 01:53:48;;;;;;;16.20;7.65;;;1.50;99.90;;;;;;5073396;28;20040;-60
2023/04/10 01:56:21;;;;;;;18.55;8.52;;;1.40;99.90;;;;;;5076298;28;20487;-60
2023/04/10 01:58:49;;;;;;;19.15;9.20;;;1.40;99.90;;;;;;5082731;28;20392;-60
2023/04/10 02:01:20;;;;;;;19.48;9.10;;;1.40;99.90;;;;;;5064719;28;20501;-60
2023/04/10 02:06:52;;;;;;;;;;;1.40;99.90;;;;;;5044138;28;20466;-50
2023/04/10 02:09:49;;;;;;;19.42;9.00;;;1.40;99.90;;;;;;5045282;28;19924;-50
2023/04/10 02:12:21;;;;;;;19.90;9.02;;;1.30;99.90;;;;;;5064722;28;20102;-50
2023/04/10 02:14:49;;;;;;;20.35;9.32;;;1.30;99.90;;;;;;5053176;28;20047;-50
2023/04/10 02:17:22;;;;;;;20.23;10.15;;;1.30;99.90;;;;;;5038310;28;20076;-50
2023/04/10 02:19:53;;;;;;;22.15;10.35;;;1.30;99.90;;;;;;5051474;28;20048;-50
2023/04/10 02:22:21;;;;;;;21.58;9.88;;;1.30;99.90;;;;;;5034589;28;20125;-51
2023/04/10 02:24:49;;;;;;;20.65;9.32;;;1.30;99.90;;;;;;5053503;28;20045;-50
2023/04/10 02:27:26;;;;;;;22.27;9.52;;;1.30;99.90;;;;;;5052380;28;20057;-50
2023/04/10 02:29:53;;;;;;;21.40;9.93;;;1.30;99.90;;;;;;5052717;28;20049;-50
2023/04/10 02:32:20;;;;;;;20.75;10.55;;;1.20;99.90;;;;;;5047321;28;20132;-50
2023/04/10 02:34:47;;;;;;;12.88;6.35;;;1.30;99.90;;;;;;5037897;28;20405;-51
2023/04/10 02:37:13;;;;;;;14.75;7.18;;;1.20;99.90;;;;;;5052844;28;20091;-49
2023/04/10 02:39:40;;;;;;;14.43;6.93;;;1.20;99.90;;;;;;5034001;28;20447;-54
2023/04/10 02:42:07;;;;;;;13.38;7.15;;;1.10;99.90;;;;;;5045791;28;20055;-51
2023/04/10 02:44:35;;;;;;;12.63;6.78;;;1.00;99.90;;;;;;5053931;28;20132;-50
2023/04/10 02:47:02;;;;;;;16.85;7.78;;;1.00;99.90;;;;;;5045731;28;20075;-52
2023/04/10 02:49:33;;;;;;;16.35;7.13;;;0.90;99.90;;;;;;5051390;28;20041;-49
2023/04/10 02:52:07;;;;;;;16.33;7.97;;;1.00;99.90;;;;;;5050409;28;20044;-50
2023/04/10 02:54:34;;;;;;;10.45;5.10;;;1.00;99.90;;;;;;5043197;28;20567;-50
2023/04/10 02:57:01;;;;;;;11.13;5.57;;;1.00;99.90;;;;;;5040064;28;20049;-50
2023/04/10 02:59:28;;;;;;;11.32;5.47;;;0.90;99.90;;;;;;5041176;28;20041;-51
2023/04/10 03:01:54;;;;;;;14.38;5.88;;;0.80;99.90;;;;;;5052651;28;20390;-49
2023/04/10 03:04:21;;;;;;;16.67;7.38;;;0.80;99.90;;;;;;5051841;28;20037;-51
2023/04/10 03:06:48;;;;;;;18.58;8.05;;;0.60;99.90;;;;;;5038645;28;20411;-53
2023/04/10 03:09:15;;;;;;;14.75;7.15;;;0.60;99.90;;;;;;5031722;28;20570;-50
2023/04/10 03:11:42;;;;;;;;;;;0.60;99.90;;;;;;5030265;28;20064;-50
2023/04/10 03:14:09;;;;;;;13.65;6.78;;;0.50;99.90;;;;;;5032249;28;19948;-51
2023/04/10 03:16:35;;;;;;;15.55;7.18;;;0.60;99.90;;;;;;5052322;28;20083;-51
2023/04/10 03:19:03;;;;;;;12.77;6.40;;;0.60;99.90;;;;;;5067555;28;20041;-50
2023/04/10 03:21:30;;;;;;;14.73;6.55;;;0.60;99.90;;;;;;5072418;28;20037;-51
2023/04/10 03:23:57;;;;;;;16.65;7.22;;;0.70;99.90;;;;;;5055556;28;20577;-50
2023/04/10 03:26:24;;;;;;;13.45;6.45;;;0.60;99.90;;;;;;5027619;28;20056;-51
2023/04/10 03:28:51;;;;;;;14.50;6.95;;;0.50;99.90;;;;;;5066686;28;20040;-49
2023/04/10 03:31:19;;;;;;;15.73;7.03;;;0.50;99.90;;;;;;5070988;28;20501;-51
2023/04/10 03:33:46;;;;;;;13.82;6.40;;;0.50;99.90;;;;;;5057338;28;20041;-50
2023/04/10 03:36:13;;;;;;;18.15;7.95;;;0.50;99.90;;;;;;5034152;28;20052;-50
2023/04/10 03:38:40;;;;;;;16.55;7.40;;;0.50;99.90;;;;;;5045205;28;20041;-50
2023/04/10 03:41:07;;;;;;;14.25;6.53;;;0.50;99.90;;;;;;5050903;28;20464;-53
2023/04/10 03:43:34;;;;;;;13.07;6.50;;;0.50;99.90;;;;;;5034927;28;20044;-51
2023/04/10 03:46:03;;;;;;;15.35;7.55;;;0.50;99.90;;;;;;5048416;28;20052;-51
2023/04/10 03:48:31;;;;;;;17.45;7.63;;;0.50;99.90;;;;;;5049255;28;20416;-50
2023/04/10 03:50:58;;;;;;;14.27;7.43;;;0.40;99.90;;;;;;5067261;28;20044;-50
2023/04/10 03:53:24;;;;;;;13.68;6.47;;;0.50;99.90;;;;;;5065780;28;20064;-50
2023/04/10 03:55:53;;;;;;;16.55;6.88;;;0.50;99.90;;;;;;5042673;28;20037;-49
2023/04/10 03:58:21;;;;;;;18.80;7.28;;;0.60;99.90;;;;;;5050904;28;20037;-51
2023/04/10 04:00:49;;;;;;;16.48;7.88;;;0.60;99.90;;;;;;5043724;28;20071;-50
2023/04/10 04:03:33;;;;;;;15.40;7.43;;;0.60;99.90;;;;;;5049153;28;20069;-49
2023/04/10 04:06:19;;;;;;;19.15;7.80;;;0.60;99.90;;;;;;5038315;28;20052;-49
2023/04/10 04:09:06;;;;;;;11.82;5.53;;;0.60;99.90;;;;;;5049446;28;20056;-50
2023/04/10 04:11:55;;;;;;;16.90;7.35;;;0.60;99.90;;;;;;5046099;28;20497;-50
2023/04/10 04:14:34;;;;;;;18.15;7.68;;;0.60;99.90;;;;;;5051361;28;20486;-49
2023/04/10 04:17:25;;;;;;;18.83;8.13;;;0.60;99.90;;;;;;5040837;28;20051;-51
2023/04/10 04:20:14;;;;;;;18.60;8.75;;;0.50;99.90;;;;;;5045171;28;20047;-51
2023/04/10 04:22:59;;;;;;;16.63;7.72;;;0.40;99.90;;;;;;5040808;28;20494;-52
2023/04/10 04:25:56;;;;;;;17.27;8.40;;;0.40;99.90;;;;;;5027032;28;20095;-50
2023/04/10 04:28:41;;;;;;;15.77;7.35;;;0.30;99.90;;;;;;5038827;28;20062;-50
2023/04/10 04:31:19;;;;;;;18.95;8.98;;;0.30;99.90;;;;;;5062458;28;20483;-51
2023/04/10 04:34:03;;;;;;;19.35;8.32;;;0.30;99.90;;;;;;5044459;28;20449;-52
2023/04/10 04:37:02;;;;;;;13.82;6.40;;;0.30;99.90;;;;;;5033876;28;20037;-53
2023/04/10 04:39:50;;;;;;;16.20;7.53;;;0.30;99.90;;;;;;5049303;28;20417;-50
2023/04/10 04:42:33;;;;;;;16.33;8.20;;;0.30;99.90;;;;;;5047208;28;20045;-52
2023/04/10 04:45:20;;;;;;;16.05;7.43;;;0.30;99.90;;;;;;5047365;28;20080;-50
2023/04/10 04:48:13;;;;;;;16.52;8.05;;;0.40;99.90;;;;;;5031169;28;20063;-51
2023/04/10 04:50:51;;;;;;;20.38;7.95;;;0.30;99.90;;;;;;5048572;28;20103;-52
2023/04/10 04:53:37;;;;;;;21.73;8.93;;;0.30;99.90;;;;;;5051346;28;20052;-52
2023/04/10 04:56:30;;;;;;;19.40;8.65;;;0.40;99.90;;;;;;5041615;28;20140;-51
2023/04/10 04:59:15;;;;;;;20.88;10.32;;;0.40;99.90;;;;;;5042440;28;20060;-51
2023/04/10 05:02:15;;;;;;;32.40;15.02;;;0.40;99.90;;;;;;5007524;28;20052;-52
2023/04/10 05:05:07;;;;;;;33.10;14.10;;;0.40;99.90;;;;;;5047969;28;20147;-50
2023/04/10 05:07:44;;;;;;;27.73;12.15;;;0.40;99.90;;;;;;5049499;28;20135;-51
2023/04/10 05:10:37;;;;;;;20.25;10.20;;;0.50;99.90;;;;;;5040869;28;20041;-50
2023/04/10 05:13:33;;;;;;;20.13;9.68;;;0.40;99.90;;;;;;5029662;28;20502;-50
2023/04/10 05:16:19;;;;;;;19.45;9.77;;;0.40;99.90;;;;;;5042544;28;20060;-49
2023/04/10 05:19:04;;;;;;;22.42;9.95;;;0.50;99.90;;;;;;5041290;28;20060;-50
2023/04/10 05:21:40;;;;;;;22.50;10.00;;;0.60;99.90;;;;;;5033257;28;20045;-50
2023/04/10 05:24:45;;;;;;;20.30;9.88;;;0.60;99.90;;;;;;5001255;28;20189;-51
2023/04/10 05:27:21;;;;;;;20.88;10.48;;;0.70;99.90;;;;;;5005476;28;20070;-51
2023/04/10 05:30:07;;;;;;;24.15;10.63;;;0.70;99.90;;;;;;5014809;28;20104;-51
2023/04/10 05:32:48;;;;;;;20.58;10.13;;;0.80;99.90;;;;;;5031700;28;20080;-52
2023/04/10 05:35:34;;;;;;;23.98;10.65;;;0.80;99.90;;;;;;5041759;28;20045;-52
2023/04/10 05:38:19;;;;;;;19.65;9.60;;;0.90;99.90;;;;;;5029043;28;20469;-51
2023/04/10 05:41:06;;;;;;;19.35;9.55;;;1.00;99.90;;;;;;5043291;28;20560;-52
2023/04/10 05:43:39;;;;;;;23.15;9.95;;;1.00;99.90;;;;;;5042513;28;20109;-51
2023/04/10 05:46:24;;;;;;;24.95;10.00;;;1.10;99.90;;;;;;5042066;28;20049;-53
2023/04/10 05:49:04;;;;;;;22.65;11.02;;;1.10;99.90;;;;;;5042476;28;20056;-52
2023/04/10 05:51:52;;;;;;;20.38;9.98;;;1.20;99.90;;;;;;5016082;28;20056;-50
2023/04/10 05:54:42;;;;;;;19.02;8.77;;;1.30;99.90;;;;;;5030873;28;20110;-51
2023/04/10 05:57:28;;;;;;;21.67;9.88;;;1.30;99.90;;;;;;5053587;28;20063;-51
2023/04/10 06:00:20;;;;;;;20.35;9.95;;;1.40;99.90;;;;;;5026388;28;20034;-51
2023/04/10 06:03:05;;;;;;;19.10;10.02;;;1.40;99.90;;;;;;5070389;28;20102;-51
2023/04/10 06:05:43;;;;;;;19.50;9.65;;;1.50;99.90;;;;;;5055927;28;20102;-51
2023/04/10 06:08:10;;;;;;;14.25;7.45;;;1.50;99.90;;;;;;5050262;28;20047;-50
2023/04/10 06:10:37;;;;;;;20.13;9.93;;;1.50;99.90;;;;;;5053207;28;20106;-51
2023/04/10 06:13:03;;;;;;;22.15;10.70;;;1.70;99.90;;;;;;5043228;28;20497;-52
2023/04/10 06:15:30;;;;;;;15.20;7.50;;;1.80;99.90;;;;;;5051839;28;20048;-51
2023/04/10 06:17:57;;;;;;;21.58;10.57;;;1.80;99.90;;;;;;5057161;28;20132;-51
2023/04/10 06:20:24;;;;;;;21.17;9.98;;;1.90;99.90;;;;;;5043759;28;20044;-50
2023/04/10 06:22:50;;;;;;;20.65;9.57;;;2.00;99.90;;;;;;5051615;28;20044;-52
2023/04/10 06:25:17;;;;;;;19.83;10.63;;;2.10;99.90;;;;;;5047847;28;20045;-53
2023/04/10 06:27:44;;;;;;;14.60;7.00;;;2.10;99.90;;;;;;5038951;28;20045;-51
2023/04/10 06:30:12;;;;;;;19.35;9.70;;;2.20;99.90;;;;;;5051266;28;20048;-50
2023/04/10 06:32:39;;;;;;;;;;;2.30;99.90;;;;;;5052073;28;20140;-50
2023/04/10 06:35:06;;;;;;;19.30;8.23;;;2.20;99.90;;;;;;5043700;28;19939;-50
2023/04/10 06:37:33;;;;;;;20.42;8.77;;;2.30;99.90;;;;;;5050951;28;20041;-52
2023/04/10 06:40:09;;;;;;;16.63;8.45;;;2.40;99.90;;;;;;5051854;28;20037;-53
2023/04/10 06:42:37;;;;;;;19.83;9.35;;;2.50;99.90;;;;;;5056993;28;20115;-51
2023/04/10 06:45:12;;;;;;;18.20;8.82;;;2.70;99.90;;;;;;5052444;28;20051;-50
2023/04/10 06:47:39;;;;;;;12.02;6.47;;;2.90;99.90;;;;;;5044268;28;20473;-52
2023/04/10 06:50:06;;;;;;;14.70;7.47;;;3.10;99.90;;;;;;5052209;28;20049;-51
2023/04/10 06:52:33;;;;;;;10.18;6.47;;;3.20;99.90;;;;;;5043471;28;20055;-50
2023/04/10 06:54:59;;;;;;;17.08;8.40;;;3.30;99.90;;;;;;5050458;28;20091;-55
2023/04/10 06:57:27;;;;;;;19.45;8.45;;;3.50;99.90;;;;;;5072017;28;20079;-50
2023/04/10 06:59:54;;;;;;;14.15;7.65;;;3.60;99.90;;;;;;5069981;28;20517;-50
2023/04/10 07:02:21;;;;;;;15.88;8.32;;;3.60;99.90;;;;;;5045768;28;20037;-51
2023/04/10 07:04:48;;;;;;;18.55;8.45;;;3.80;99.90;;;;;;5053796;28;20049;-50
2023/04/10 07:07:16;;;;;;;;;;;3.90;99.90;;;;;;5072513;28;20055;-50
2023/04/10 07:09:43;;;;;;;14.10;7.47;;;4.00;99.90;;;;;;5062765;28;19952;-53
2023/04/10 07:12:10;;;;;;;10.57;5.45;;;4.00;99.90;;;;;;5050373;28;20072;-52
2023/04/10 07:14:36;;;;;;;15.05;7.70;;;4.00;99.90;;;;;;5055384;28;20640;-50
2023/04/10 07:17:03;;;;;;;17.08;8.30;;;4.10;99.90;;;;;;5072013;28;20041;-51
2023/04/10 07:19:30;;;;;;;15.43;7.45;;;4.30;99.90;;;;;;5067667;28;20448;-52
2023/04/10 07:21:57;;;;;;;16.50;7.90;;;4.40;99.90;;;;;;5049356;28;20087;-50
2023/04/10 07:24:23;;;;;;;12.27;7.10;;;4.50;99.90;;;;;;5057055;28;20229;-51
2023/04/10 07:26:50;;;;;;;15.55;8.35;;;4.70;99.90;;;;;;5072239;28;20056;-50
2023/04/10 07:29:18;;;;;;;15.05;7.07;;;4.80;99.90;;;;;;5065530;28;20033;-52
2023/04/10 07:31:44;;;;;;;13.13;7.13;;;5.00;99.90;;;;;;5051867;28;20041;-51
2023/04/10 07:34:11;;;;;;;12.52;6.88;;;5.00;99.90;;;;;;5070304;28;20489;-51
2023/04/10 07:36:38;;;;;;;14.65;7.88;;;5.10;99.90;;;;;;5055644;28;20053;-51
2023/04/10 07:39:05;;;;;;;12.70;6.95;;;5.20;99.90;;;;;;5049294;28;20041;-51
2023/04/10 07:41:31;;;;;;;11.88;7.07;;;5.30;99.90;;;;;;5046110;28;20033;-52
2023/04/10 07:43:58;;;;;;;14.10;7.05;;;5.40;99.90;;;;;;5046185;28;20045;-50
2023/04/10 07:46:26;;;;;;;15.43;8.38;;;5.60;99.90;;;;;;5041279;28;20045;-51
2023/04/10 07:48:54;;;;;;;14.43;6.90;;;5.60;99.90;;;;;;5047456;28;20124;-50
2023/04/10 07:51:21;;;;;;;13.05;6.45;;;5.70;99.90;;;;;;5053697;28;20033;-50
2023/04/10 07:53:48;;;;;;;11.93;6.53;;;5.90;99.90;;;;;;5052031;28;20102;-53
2023/04/10 07:56:19;;;;;;;12.32;7.22;;;6.00;99.90;;;;;;5051257;28;20049;-51
2023/04/10 07:58:46;;;;;;;13.90;7.25;;;6.10;99.90;;;;;;5049447;28;20409;-54
2023/04/10 08:01:14;;;;;;;11.80;6.68;;;6.30;99.90;;;;;;5045666;28;20553;-51
2023/04/10 08:03:42;;;;;;;10.55;6.18;;;6.50;99.90;;;;;;5056117;28;20079;-53
2023/04/10 08:06:11;;;;;;;13.60;7.22;;;6.60;99.90;;;;;;5051053;28;20051;-52
2023/04/10 08:08:39;;;;;;;11.60;6.60;;;6.70;99.90;;;;;;5049308;28;20106;-53
2023/04/10 08:11:27;;;;;;;10.80;6.00;;;6.90;99.90;;;;;;5047720;28;20498;-50
2023/04/10 08:14:00;;;;;;;6.22;3.95;;;6.90;99.90;;;;;;5082455;22;20094;-55
2023/04/10 08:16:32;;;;;;;11.02;5.97;;;7.00;99.90;;;;;;5073966;28;20040;-55
2023/04/10 08:19:00;;;;;;;11.57;6.32;;;7.10;99.90;;;;;;5089698;28;20040;-54
2023/04/10 08:21:28;;;;;;;11.98;5.97;;;7.20;99.90;;;;;;5090869;28;20086;-54
2023/04/10 08:23:57;;;;;;;10.13;5.90;;;7.20;99.90;;;;;;5082741;28;20099;-53
2023/04/10 08:26:25;;;;;;;8.27;5.18;;;7.30;99.90;;;;;;5100606;28;20493;-55
2023/04/10 08:28:54;;;;;;;10.50;5.60;;;7.60;99.90;;;;;;5090257;28;20504;-57
2023/04/10 08:31:23;;;;;;;9.38;5.93;;;7.80;99.90;;;;;;5090169;28;20055;-57
2023/04/10 08:33:50;;;;;;;9.82;5.80;;;7.90;99.90;;;;;;5081912;28;20040;-57
2023/04/10 08:36:18;;;;;;;;;;;8.00;99.90;;;;;;5081926;28;20094;-55
2023/04/10 08:38:46;;;;;;;9.75;5.07;;;8.10;99.90;;;;;;5078333;28;19924;-55
2023/04/10 08:41:14;;;;;;;;;;;8.20;99.90;;;;;;5080830;28;20036;-56
2023/04/10 08:43:42;;;;;;;10.98;5.07;;;8.30;99.90;;;;;;5079661;28;19978;-56
2023/04/10 08:46:09;;;;;;;7.50;4.97;;;8.40;99.90;;;;;;5082244;28;20075;-54
2023/04/10 08:48:37;;;;;;;9.82;5.32;;;8.50;99.90;;;;;;5078145;28;20606;-55
2023/04/10 08:51:07;;;;;;;9.07;5.15;;;8.60;99.90;;;;;;5080379;28;20068;-53
2023/04/10 08:53:43;;;;;;;7.70;4.82;;;8.70;99.90;;;;;;5078864;28;20037;-56
2023/04/10 08:56:15;;;;;;;9.63;5.22;;;8.70;99.90;;;;;;5085200;28;20040;-55
2023/04/10 08:58:42;;;;;;;12.70;5.78;;;8.70;99.90;;;;;;5078789;28;20115;-56
2023/04/10 09:01:10;;;;;;;9.02;4.85;;;8.70;99.90;;;;;;5080307;28;20052;-53
2023/04/10 09:03:37;;;;;;;6.95;4.13;;;9.00;99.90;;;;;;5078422;28;20697;-56
2023/04/10 09:06:05;;;;;;;8.40;4.65;;;9.10;99.90;;;;;;5077482;28;20536;-55
2023/04/10 09:08:32;;;;;;;7.22;4.57;;;9.20;99.90;;;;;;5077950;28;20068;-56
2023/04/10 09:10:59;;;;;;;8.60;5.35;;;9.30;99.90;;;;;;5059717;28;20086;-56
2023/04/10 09:13:40;;;;;;;8.70;4.72;;;9.40;99.90;;;;;;5080009;28;20471;-56
2023/04/10 09:16:08;;;;;;;8.77;4.60;;;9.60;99.90;;;;;;5078008;28;20036;-56
2023/04/10 09:18:43;;;;;;;8.45;5.50;;;9.70;99.90;;;;;;5080345;28;20850;-57
2023/04/10 09:21:13;;;;;;;8.77;4.85;;;9.90;99.90;;;;;;5070894;28;20398;-55
2023/04/10 09:23:42;;;;;;;7.45;4.68;;;10.10;99.90;;;;;;5081737;28;20036;-58
2023/04/10 09:26:25;;;;;;;6.43;3.97;;;10.20;99.90;;;;;;5070497;28;20075;-56
2023/04/10 09:29:03;;;;;;;8.05;5.03;;;10.30;99.90;;;;;;5073448;28;20044;-55
2023/04/10 09:31:34;;;;;;;8.82;4.35;;;10.40;99.90;;;;;;5080029;28;20037;-56
2023/04/10 09:34:21;;;;;;;8.15;4.88;;;10.50;99.90;;;;;;5081521;28;20476;-57
2023/04/10 09:36:55;;;;;;;6.60;4.43;;;10.60;99.90;;;;;;5094564;28;20427;-55
2023/04/10 09:39:43;;;;;;;8.23;4.85;;;10.60;99.90;;;;;;5092958;28;20307;-56
2023/04/10 09:42:13;;;;;;;6.45;3.92;;;10.60;99.90;;;;;;5086329;28;20049;-57
2023/04/10 09:44:41;;;;;;;7.75;4.75;;;10.70;99.90;;;;;;5098689;28;20126;-57
2023/04/10 09:47:17;;;;;;;7.13;4.32;;;10.80;99.90;;;;;;5103957;28;20047;-55
2023/04/10 09:49:54;;;;;;;6.25;4.15;;;11.00;99.90;;;;;;5088518;28;20094;-57
2023/04/10 09:52:28;;;;;;;8.77;4.53;;;11.00;99.90;;;;;;5091967;28;20044;-55
2023/04/10 09:55:00;;;;;;;7.18;4.20;;;11.00;99.90;;;;;;5095666;28;20071;-56
2023/04/10 09:57:30;;;;;;;7.28;4.35;;;11.20;99.90;;;;;;5091298;28;20043;-56
2023/04/10 10:00:00;;;;;;;6.57;4.43;;;11.30;99.00;;;;;;5090614;28;20040;-57
2023/04/10 10:02:33;;;;;;;7.57;4.40;;;11.20;99.40;;;;;;5089097;28;20036;-57
2023/04/10 10:05:01;;;;;;;8.25;4.88;;;11.30;99.90;;;;;;5092633;28;20072;-57
2023/04/10 10:07:29;;;;;;;7.20;4.70;;;11.30;99.90;;;;;;5091368;28;20578;-57
2023/04/10 10:09:57;;;;;;;7.13;4.30;;;11.30;98.60;;;;;;5091464;28;20115;-56
2023/04/10 10:12:40;;;;;;;6.85;4.28;;;11.30;98.60;;;;;;5092530;28;20130;-57
2023/04/10 10:15:21;;;;;;;7.95;4.22;;;11.40;99.20;;;;;;5092981;28;20086;-57
2023/04/10 10:18:25;;;;;;;7.57;4.63;;;11.60;98.20;;;;;;5089283;28;20090;-57
2023/04/10 10:20:52;;;;;;;6.82;4.35;;;11.70;97.60;;;;;;5071920;28;20078;-56
2023/04/10 10:23:20;;;;;;;;;;;11.50;96.30;;;;;;5088227;28;20319;-55
2023/04/10 10:25:49;;;;;;;5.70;3.95;;;11.40;96.50;;;;;;5093482;28;19920;-56
2023/04/10 10:28:17;;;;;;;5.63;4.13;;;11.60;95.30;;;;;;5082543;28;20103;-57
2023/04/10 10:30:45;;;;;;;7.18;3.90;;;11.80;97.30;;;;;;5059873;28;20497;-56
2023/04/10 10:33:13;;;;;;;4.72;3.20;;;12.10;97.20;;;;;;5086275;28;20572;-56
2023/04/10 10:35:41;;;;;;;5.10;3.47;;;12.20;95.30;;;;;;5090609;28;20032;-56
2023/04/10 10:38:08;;;;;;;4.80;3.15;;;12.30;92.00;;;;;;5087410;28;20040;-57
2023/04/10 10:41:05;;;;;;;5.45;3.45;;;12.30;90.60;;;;;;5086825;28;20048;-56
2023/04/10 10:43:43;;;;;;;6.10;3.25;;;12.30;91.80;;;;;;5086879;28;20028;-57
2023/04/10 10:46:15;;;;;;;5.55;3.22;;;12.50;92.30;;;;;;5090056;28;20040;-55
2023/04/10 10:48:56;;;;;;;4.15;3.00;;;12.50;91.90;;;;;;5092690;28;20040;-56
2023/04/10 10:51:41;;;;;;;3.53;2.53;;;12.60;92.50;;;;;;5088104;28;20093;-56
2023/04/10 10:54:26;;;;;;;5.75;3.30;;;12.80;92.40;;;;;;5085901;28;20040;-56
2023/04/10 10:56:53;;;;;;;3.42;2.70;;;13.00;92.10;;;;;;5087717;28;20040;-56
2023/04/10 10:59:47;;;;;;;4.43;2.33;;;12.90;89.70;;;;;;5089794;28;20047;-56
2023/04/10 11:02:15;;;;;;;4.65;2.97;;;12.80;88.00;;;;;;5089097;28;20051;-56
2023/04/10 11:04:48;;;;;;;3.75;2.65;;;12.80;89.80;;;;;;5091956;28;20043;-56
2023/04/10 11:07:16;;;;;;;4.57;2.65;;;13.10;88.80;;;;;;5091707;28;20036;-55
2023/04/10 11:09:50;;;;;;;4.15;2.58;;;13.20;86.20;;;;;;5089021;28;20044;-57
2023/04/10 11:12:20;;;;;;;4.45;2.47;;;13.40;86.50;;;;;;5090919;28;20040;-57
2023/04/10 11:15:01;;;;;;;3.70;2.70;;;13.40;81.60;;;;;;5091423;28;20663;-56
2023/04/10 11:17:50;;;;;;;4.03;2.42;;;13.40;79.30;;;;;;5090133;28;20040;-56
2023/04/10 11:20:20;;;;;;;3.78;2.72;;;13.20;77.90;;;;;;5089671;28;20063;-55
2023/04/10 11:23:10;;;;;;;3.33;2.25;;;13.20;83.10;;;;;;5092187;28;20044;-56
2023/04/10 11:25:52;;;;;;;3.17;2.30;;;13.20;75.60;;;;;;5089932;28;20437;-57
2023/04/10 11:28:34;;;;;;;3.55;2.35;;;13.20;76.20;;;;;;5088435;28;20040;-55
2023/04/10 11:31:21;;;;;;;3.17;2.50;;;13.10;76.30;;;;;;5090774;28;20052;-56
2023/04/10 11:33:59;;;;;;;3.97;2.60;;;13.40;76.80;;;;;;5089263;28;20447;-55
2023/04/10 11:36:27;;;;;;;3.75;2.67;;;13.50;79.10;;;;;;5089038;28;20070;-57
2023/04/10 11:39:09;;;;;;;3.38;2.60;;;13.70;80.00;;;;;;5090401;28;20040;-55
2023/04/10 11:41:37;;;;;;;3.70;2.80;;;13.70;80.90;;;;;;5091312;28;20048;-55
2023/04/10 11:44:06;;;;;;;3.83;2.85;;;13.60;78.90;;;;;;5088677;28;20044;-55
2023/04/10 11:46:43;;;;;;;4.20;2.95;;;13.60;80.20;;;;;;5091214;28;20044;-56
2023/04/10 11:49:10;;;;;;;4.07;3.00;;;13.70;81.40;;;;;;5090096;28;20083;-57
2023/04/10 11:51:38;;;;;;;3.05;2.20;;;13.90;80.40;;;;;;5091183;28;20546;-56
2023/04/10 11:54:15;;;;;;;3.92;2.85;;;13.80;78.90;;;;;;5085859;28;20488;-57
2023/04/10 11:56:53;;;;;;;3.97;3.07;;;13.80;81.70;;;;;;5090093;28;20636;-59
2023/04/10 11:59:20;;;;;;;;;;;13.50;79.90;;;;;;5088847;28;20090;-57
2023/04/10 12:01:46;;;;;;;4.00;2.45;;;13.60;82.40;;;;;;5089016;28;19927;-56
2023/04/10 12:04:18;;;;;;;3.83;3.03;;;13.80;80.50;;;;;;5066714;28;20044;-57
2023/04/10 12:06:47;;;;;;;4.03;2.65;;;14.00;83.90;;;;;;5091132;28;20086;-56
2023/04/10 12:09:15;;;;;;;4.20;2.88;;;14.20;79.50;;;;;;5089598;28;20040;-56
2023/04/10 12:12:01;;;;;;;4.15;2.90;;;14.10;78.70;;;;;;5086725;28;20123;-56
2023/04/10 12:14:40;;;;;;;3.63;2.65;;;14.20;81.00;;;;;;5089353;28;20044;-57
2023/04/10 12:17:11;;;;;;;4.47;2.97;;;14.10;79.70;;;;;;5088607;28;20039;-57
2023/04/10 12:19:39;;;;;;;3.55;2.53;;;14.30;79.40;;;;;;5085925;28;20047;-57
2023/04/10 12:22:06;;;;;;;5.38;2.78;;;14.30;77.20;;;;;;5083579;28;20044;-57
2023/04/10 12:24:43;;;;;;;4.68;2.95;;;14.10;80.20;;;;;;5084793;28;20040;-55
2023/04/10 12:27:17;;;;;;;3.27;2.67;;;14.30;78.00;;;;;;5081450;28;20040;-56
2023/04/10 12:29:45;;;;;;;3.65;2.70;;;14.40;76.60;;;;;;5077962;28;20278;-56
2023/04/10 12:32:12;;;;;;;3.67;2.70;;;14.40;77.80;;;;;;5082714;28;20040;-56
2023/04/10 12:34:40;;;;;;;3.90;2.88;;;14.40;76.50;;;;;;5082034;28;20110;-58
2023/04/10 12:37:08;;;;;;;;;;;14.30;77.90;;;;;;5079100;28;20040;-57
2023/04/10 12:39:35;;;;;;;3.78;2.45;;;14.40;77.60;;;;;;5073724;28;19943;-57
2023/04/10 12:42:11;;;;;;;3.70;2.38;;;14.50;78.10;;;;;;5088284;28;20086;-57
2023/04/10 12:44:56;;;;;;;3.17;2.50;;;14.60;79.90;;;;;;5091169;28;20105;-57
2023/04/10 12:47:24;;;;;;;4.45;2.55;;;14.90;78.40;;;;;;5089609;28;20079;-57
2023/04/10 12:50:12;;;;;;;3.47;2.80;;;15.00;77.10;;;;;;5082690;28;20040;-56
2023/04/10 12:53:00;;;;;;;3.75;2.60;;;15.10;76.10;;;;;;5072844;28;20052;-57
2023/04/10 12:55:27;;;;;;;4.10;2.83;;;14.90;78.70;;;;;;5070712;28;20507;-58
2023/04/10 12:57:55;;;;;;;3.72;2.53;;;15.00;75.90;;;;;;5089205;28;20320;-56
2023/04/10 13:00:24;;;;;;;3.20;2.58;;;15.30;76.80;;;;;;5088556;28;20411;-57
2023/04/10 13:02:50;;;;;;;4.18;3.15;;;15.00;75.20;;;;;;5090168;28;20040;-57
2023/04/10 13:05:18;;;;;;;4.22;3.13;;;15.00;75.30;;;;;;5087772;28;20423;-55
2023/04/10 13:07:45;;;;;;;3.28;2.42;;;15.00;75.10;;;;;;5106818;28;20073;-57
2023/04/10 13:10:11;;;;;;;4.10;2.75;;;15.10;73.40;;;;;;5110169;28;20517;-57
2023/04/10 13:12:39;;;;;;;4.28;2.45;;;15.20;72.60;;;;;;5081816;28;20036;-57
2023/04/10 13:15:06;;;;;;;4.00;2.88;;;15.20;75.90;;;;;;5089610;28;20101;-57
2023/04/10 13:17:33;;;;;;;3.55;2.75;;;15.30;75.30;;;;;;5090830;28;20044;-56
2023/04/10 13:20:00;;;;;;;4.03;2.58;;;15.40;72.30;;;;;;5081349;28;20032;-57
2023/04/10 13:22:27;;;;;;;4.43;3.05;;;15.30;75.40;;;;;;5090883;28;20040;-56
2023/04/10 13:24:54;;;;;;;3.80;2.25;;;15.40;73.20;;;;;;5089229;28;20068;-57